Time;durP1;ratioP1;P1;durP2;ratioP2;P2;SDS_P1;SDS_P2;PMS_P1;PMS_P2;Temp;Humidity;BMP_temperature;BMP_pressure;BME280_temperature;BME280_humidity;BME280_pressure;Samples;Min_cycle;Max_cycle;Signal;HPM_P1;HPM_P2
2019/06/07 00:01:22;;;;;;;11.3;9.4;;;;;;;10.67;85.34766;1001.662;;;;
2019/06/07 00:03:47;;;;;;;11.7;9.5;;;;;;;10.7;85.2959;1001.664;;;;
2019/06/07 00:06:19;;;;;;;11.5;9.9;;;;;;;10.67;85.30176;1001.654;;;;
2019/06/07 00:08:44;;;;;;;12.9;10.3;;;;;;;10.62;85.51953;1001.657;;;;
2019/06/07 00:11:19;;;;;;;12.3;10.4;;;;;;;10.56;85.79395;1001.647;;;;
2019/06/07 00:13:44;;;;;;;12.9;10.1;;;;;;;10.48;86.15723;1001.619;;;;
2019/06/07 00:16:09;;;;;;;12;10.2;;;;;;;10.43;86.19238;1001.576;;;;
2019/06/07 00:18:34;;;;;;;12.2;9.9;;;;;;;10.43;86.20215;1001.619;;;;
2019/06/07 00:21:00;;;;;;;11.9;9.9;;;;;;;10.51;85.80762;1001.537;;;;
2019/06/07 00:23:25;;;;;;;12.7;10.9;;;;;;;;;;;;;
2019/06/07 00:25:50;;;;;;;13.6;11.5;;;;;;;;;;;;;
2019/06/07 00:28:15;;;;;;;14.2;11.5;;;;;;;;;;;;;
2019/06/07 00:30:40;;;;;;;13.3;11;;;;;;;;;;;;;
2019/06/07 00:33:05;;;;;;;12.4;10.8;;;;;;;;;;;;;
2019/06/07 00:35:30;;;;;;;14.1;10.8;;;;;;;;;;;;;
2019/06/07 00:37:55;;;;;;;12.2;10.9;;;;;;;;;;;;;
2019/06/07 00:40:20;;;;;;;14;11.3;;;;;;;;;;;;;
2019/06/07 00:42:45;;;;;;;13.6;10.5;;;;;;;;;;;;;
2019/06/07 00:45:15;;;;;;;12.6;10.9;;;;;;;;;;;;;
2019/06/07 00:47:40;;;;;;;12.6;11.3;;;;;;;;;;;;;
2019/06/07 00:50:05;;;;;;;13.4;11.6;;;;;;;;;;;;;
2019/06/07 00:52:30;;;;;;;14.6;11.4;;;;;;;;;;;;;
2019/06/07 00:54:56;;;;;;;14.5;12.1;;;;;;;;;;;;;
2019/06/07 00:57:21;;;;;;;13.4;11.5;;;;;;;;;;;;;
2019/06/07 00:59:46;;;;;;;13.3;11.8;;;;;;;;;;;;;
2019/06/07 01:02:11;;;;;;;14.7;11.5;;;;;;;;;;;;;
2019/06/07 01:04:36;;;;;;;13.6;10.6;;;;;;;;;;;;;
2019/06/07 01:07:01;;;;;;;12.6;10.9;;;;;;;;;;;;;
2019/06/07 01:09:26;;;;;;;12.5;10.6;;;;;;;;;;;;;
2019/06/07 01:11:51;;;;;;;12.2;9.9;;;;;;;;;;;;;
2019/06/07 01:14:17;;;;;;;10.6;9.2;;;;;;;;;;;;;
2019/06/07 01:16:42;;;;;;;10.8;9.5;;;;;;;;;;;;;
2019/06/07 01:19:07;;;;;;;12.3;9.9;;;;;;;;;;;;;
2019/06/07 01:21:32;;;;;;;14.1;10.9;;;;;;;;;;;;;
2019/06/07 01:23:57;;;;;;;12.9;11;;;;;;;;;;;;;
2019/06/07 01:26:22;;;;;;;12.8;11.2;;;;;;;;;;;;;
2019/06/07 01:28:47;;;;;;;11.5;10.2;;;;;;;;;;;;;
2019/06/07 01:31:12;;;;;;;14.1;10.4;;;;;;;;;;;;;
2019/06/07 01:33:37;;;;;;;12.9;10.4;;;;;;;;;;;;;
2019/06/07 01:36:02;;;;;;;11.8;9.9;;;;;;;;;;;;;
2019/06/07 01:38:28;;;;;;;10.1;9;;;;;;;;;;;;;
2019/06/07 01:40:59;;;;;;;10.7;8.6;;;;;;;;;;;;;
2019/06/07 01:43:32;;;;;;;10.9;9;;;;;;;;;;;;;
2019/06/07 01:45:57;;;;;;;10.6;8.9;;;;;;;;;;;;;
2019/06/07 01:48:22;;;;;;;11.1;8.5;;;;;;;;;;;;;
2019/06/07 01:50:47;;;;;;;9.5;8.5;;;;;;;;;;;;;
2019/06/07 01:53:12;;;;;;;9.8;8.8;;;;;;;;;;;;;
2019/06/07 01:55:37;;;;;;;10.7;9;;;;;;;;;;;;;
2019/06/07 01:58:02;;;;;;;10.2;8.6;;;;;;;;;;;;;
2019/06/07 02:00:28;;;;;;;9.6;7.7;;;;;;;;;;;;;
2019/06/07 02:02:55;;;;;;;8.4;7.4;;;;;;;;;;;;;
2019/06/07 02:05:20;;;;;;;11.4;7.4;;;;;;;;;;;;;
2019/06/07 02:07:45;;;;;;;8.7;7.6;;;;;;;;;;;;;
2019/06/07 02:10:10;;;;;;;8.9;7.4;;;;;;;;;;;;;
2019/06/07 02:12:35;;;;;;;9.3;7.3;;;;;;;;;;;;;
2019/06/07 02:15:00;;;;;;;9.7;7.5;;;;;;;;;;;;;
2019/06/07 02:17:25;;;;;;;8.5;7.2;;;;;;;;;;;;;
2019/06/07 02:19:52;;;;;;;9.3;7.5;;;;;;;;;;;;;
2019/06/07 02:22:22;;;;;;;7.9;7.1;;;;;;;;;;;;;
2019/06/07 02:24:47;;;;;;;7;6.3;;;;;;;;;;;;;
2019/06/07 02:27:12;;;;;;;8.7;7.2;;;;;;;;;;;;;
2019/06/07 02:29:37;;;;;;;9.7;7.3;;;;;;;;;;;;;
2019/06/07 02:32:02;;;;;;;9.2;6.6;;;;;;;;;;;;;
2019/06/07 02:34:28;;;;;;;9.1;6.3;;;;;;;;;;;;;
2019/06/07 02:36:52;;;;;;;8.8;6.9;;;;;;;;;;;;;
2019/06/07 02:39:18;;;;;;;9.6;7.3;;;;;;;;;;;;;
2019/06/07 02:41:43;;;;;;;9.1;7.1;;;;;;;;;;;;;
2019/06/07 02:44:08;;;;;;;8.5;6.3;;;;;;;;;;;;;
2019/06/07 02:46:33;;;;;;;7.2;6.3;;;;;;;;;;;;;
2019/06/07 02:48:58;;;;;;;6.8;6.2;;;;;;;;;;;;;
2019/06/07 02:51:23;;;;;;;7.2;6;;;;;;;;;;;;;
2019/06/07 02:53:49;;;;;;;7.4;5.9;;;;;;;;;;;;;
2019/06/07 02:56:14;;;;;;;7.2;6;;;;;;;;;;;;;
2019/06/07 02:58:39;;;;;;;6.9;5.6;;;;;;;;;;;;;
2019/06/07 03:01:04;;;;;;;9;6.1;;;;;;;;;;;;;
2019/06/07 03:03:29;;;;;;;7.8;5.9;;;;;;;;;;;;;
2019/06/07 03:05:54;;;;;;;7.8;5.5;;;;;;;;;;;;;
2019/06/07 03:08:19;;;;;;;6.6;5.7;;;;;;;;;;;;;
2019/06/07 03:10:44;;;;;;;7.4;6.3;;;;;;;;;;;;;
2019/06/07 03:13:09;;;;;;;6.7;6;;;;;;;;;;;;;
2019/06/07 03:15:35;;;;;;;6.9;6.2;;;;;;;;;;;;;
2019/06/07 03:18:12;;;;;;;7.7;6;;;;;;;;;;;;;
2019/06/07 03:20:25;;;;;;;9.1;6;;;;;;;;;;;;;
2019/06/07 03:22:50;;;;;;;6.7;5.9;;;;;;;;;;;;;
2019/06/07 03:25:15;;;;;;;8.8;6.7;;;;;;;;;;;;;
2019/06/07 03:27:40;;;;;;;8.1;7.1;;;;;;;;;;;;;
2019/06/07 03:30:05;;;;;;;10;7;;;;;;;;;;;;;
2019/06/07 03:32:30;;;;;;;10.6;8.2;;;;;;;;;;;;;
2019/06/07 03:34:55;;;;;;;11.7;8.2;;;;;;;;;;;;;
2019/06/07 03:37:21;;;;;;;11.2;8.5;;;;;;;;;;;;;
2019/06/07 03:39:46;;;;;;;11.9;9;;;;;;;;;;;;;
2019/06/07 03:42:11;;;;;;;11.2;8.9;;;;;;;;;;;;;
2019/06/07 03:44:36;;;;;;;12.2;9.7;;;;;;;;;;;;;
2019/06/07 03:47:01;;;;;;;14.3;10.2;;;;;;;;;;;;;
2019/06/07 03:49:26;;;;;;;12.3;10.4;;;;;;;;;;;;;
2019/06/07 03:51:51;;;;;;;12.7;10.4;;;;;;;;;;;;;
2019/06/07 03:54:16;;;;;;;13.5;11.3;;;;;;;;;;;;;
2019/06/07 03:56:41;;;;;;;14.7;11.8;;;;;;;;;;;;;
2019/06/07 03:59:07;;;;;;;15.2;11.8;;;;;;;;;;;;;
2019/06/07 04:02:27;;;;;;;15.2;12.8;;;;;;;11.27;82.37988;999.96;;;;
2019/06/07 04:04:52;;;;;;;15.3;12.4;;;;;;;11.32;82.35547;999.9108;;;;
2019/06/07 04:07:18;;;;;;;17.4;13.2;;;;;;;11.34;82.1543;999.9158;;;;
2019/06/07 04:09:43;;;;;;;16.5;12.2;;;;;;;11.44;81.62305;999.9391;;;;
2019/06/07 04:12:13;;;;;;;16.9;12.7;;;;;;;11.5;81.25391;999.8999;;;;
2019/06/07 04:14:38;;;;;;;14.6;12.4;;;;;;;11.61;80.61035;999.8003;;;;
2019/06/07 04:17:03;;;;;;;15;11.9;;;;;;;11.71;80.52441;999.8529;;;;
2019/06/07 04:19:28;;;;;;;13.7;11.7;;;;;;;11.8;79.95703;999.7936;;;;
2019/06/07 04:21:53;;;;;;;15.1;11.9;;;;;;;11.85;79.48242;999.7344;;;;
2019/06/07 04:24:18;;;;;;;14.2;10.8;;;;;;;11.96;78.74414;999.6725;;;;
2019/06/07 04:26:43;;;;;;;14.6;11.5;;;;;;;12.03;78.74414;999.56;;;;
2019/06/07 04:29:09;;;;;;;14.6;10.5;;;;;;;12.07;78.0293;999.5402;;;;
2019/06/07 04:31:34;;;;;;;11.2;10;;;;;;;12.08;78.04199;999.4939;;;;
2019/06/07 04:34:00;;;;;;;11.3;9;;;;;;;12.15;77.26172;999.442;;;;
2019/06/07 04:36:25;;;;;;;11.1;9;;;;;;;12.32;76.68359;999.4135;;;;
2019/06/07 04:38:50;;;;;;;12.5;8.6;;;;;;;12.42;76.58594;999.3148;;;;
2019/06/07 04:41:15;;;;;;;9.7;7.9;;;;;;;12.68;74.95215;999.3582;;;;
2019/06/07 04:43:40;;;;;;;9.8;7.2;;;;;;;12.91;73.26563;999.325;;;;
2019/06/07 04:46:05;;;;;;;9.7;6.9;;;;;;;13.26;72.25391;999.2736;;;;
2019/06/07 04:48:30;;;;;;;8.4;6.7;;;;;;;13.56;70.79297;999.2917;;;;
2019/06/07 04:50:59;;;;;;;8.2;6.8;;;;;;;13.68;70.28125;999.2723;;;;
2019/06/07 04:53:24;;;;;;;10.6;7;;;;;;;13.75;70.35059;999.2659;;;;
2019/06/07 04:55:49;;;;;;;9.3;7.2;;;;;;;13.52;70.07129;999.2925;;;;
2019/06/07 04:58:14;;;;;;;8.9;7.5;;;;;;;13.33;71.09961;999.2539;;;;
2019/06/07 05:00:39;;;;;;;7.7;7;;;;;;;13.23;71.93652;999.2584;;;;
2019/06/07 05:03:05;;;;;;;8.3;7.2;;;;;;;13.38;71.63965;999.2313;;;;
2019/06/07 05:05:30;;;;;;;9.1;7.2;;;;;;;13.69;70.05273;999.2442;;;;
2019/06/07 05:07:55;;;;;;;9.9;7.4;;;;;;;13.69;70.47949;999.2399;;;;
2019/06/07 05:10:20;;;;;;;11.2;7.2;;;;;;;13.81;69.61035;999.272;;;;
2019/06/07 05:12:45;;;;;;;8.8;7;;;;;;;13.92;69.52344;999.2383;;;;
2019/06/07 05:15:10;;;;;;;8.6;7.2;;;;;;;13.88;69.26367;999.2338;;;;
2019/06/07 05:17:49;;;;;;;8.8;7.6;;;;;;;13.93;69.20215;999.1847;;;;
2019/06/07 05:20:14;;;;;;;10.6;7.7;;;;;;;14.03;69.16113;999.1395;;;;
2019/06/07 05:22:39;;;;;;;8.8;7;;;;;;;14.11;69.09375;999.073;;;;
2019/06/07 05:25:04;;;;;;;9.2;7.6;;;;;;;14.23;68.96289;999.0531;;;;
2019/06/07 05:27:30;;;;;;;9;7.5;;;;;;;14.2;68.51855;999.0641;;;;
2019/06/07 05:29:55;;;;;;;8;7.2;;;;;;;14.11;69.43848;999.0446;;;;
2019/06/07 05:32:20;;;;;;;8;7.2;;;;;;;14.23;69.1123;999.044;;;;
2019/06/07 05:34:45;;;;;;;10.7;7.9;;;;;;;14.41;68.68945;999.0539;;;;
2019/06/07 05:37:10;;;;;;;9.5;7.4;;;;;;;14.61;68.0625;999.0533;;;;
2019/06/07 05:39:42;;;;;;;9.5;7.6;;;;;;;14.82;67.93457;999.0399;;;;
2019/06/07 05:42:13;;;;;;;8.6;7;;;;;;;15.23;65.69336;999.0901;;;;
2019/06/07 05:44:54;;;;;;;8.6;7.2;;;;;;;15.37;66.10938;999.0697;;;;
2019/06/07 05:47:23;;;;;;;7.9;6.7;;;;;;;15.7;64.02832;999.1103;;;;
2019/06/07 05:49:48;;;;;;;8.4;6.7;;;;;;;16.14;63.38574;999.0776;;;;
2019/06/07 05:52:33;;;;;;;8.9;7.2;;;;;;;16.15;62.0752;999.034;;;;
2019/06/07 05:54:58;;;;;;;8;6.2;;;;;;;16.51;61.33691;999.1058;;;;
2019/06/07 05:57:23;;;;;;;7.2;6.5;;;;;;;16.79;59.98242;999.0606;;;;
2019/06/07 05:59:48;;;;;;;7.5;6.4;;;;;;;16.66;60.20898;999.045;;;;
2019/06/07 06:02:13;;;;;;;7.3;6;;;;;;;16.73;60.54395;999.0062;;;;
2019/06/07 06:04:38;;;;;;;9.3;6.2;;;;;;;17;58.82715;999.0463;;;;
2019/06/07 06:07:03;;;;;;;8.6;6;;;;;;;17.44;57.76953;999.0568;;;;
2019/06/07 06:09:28;;;;;;;6.4;5.5;;;;;;;17.14;58.94922;999.0012;;;;
2019/06/07 06:11:54;;;;;;;7.3;5.7;;;;;;;17.32;57.50879;999.0008;;;;
2019/06/07 06:14:38;;;;;;;7.2;5.6;;;;;;;16.96;58.90234;999.0327;;;;
2019/06/07 06:17:02;;;;;;;8.3;5.8;;;;;;;16.93;59.50293;998.9941;;;;
2019/06/07 06:19:28;;;;;;;6.9;5.9;;;;;;;17.04;58.65723;998.9832;;;;
2019/06/07 06:21:53;;;;;;;7.1;5.4;;;;;;;17.22;58.07715;998.9995;;;;
2019/06/07 06:24:32;;;;;;;7.2;5.5;;;;;;;17.07;57.7207;998.9664;;;;
2019/06/07 06:26:57;;;;;;;7.5;5.3;;;;;;;17.42;57.69629;998.972;;;;
2019/06/07 06:29:23;;;;;;;6.1;5.3;;;;;;;17.39;57.68066;998.9498;;;;
2019/06/07 06:31:48;;;;;;;6.3;5;;;;;;;18.55;54.24316;998.96;;;;
2019/06/07 06:34:14;;;;;;;5.4;4.8;;;;;;;18.71;53.99414;999.0089;;;;
2019/06/07 06:36:39;;;;;;;6.1;5.3;;;;;;;18.28;54.82617;998.9732;;;;
2019/06/07 06:39:04;;;;;;;5.4;4.9;;;;;;;18.28;54.97852;998.9623;;;;
2019/06/07 06:41:29;;;;;;;5.7;5.1;;;;;;;17.85;56.1709;998.9408;;;;
2019/06/07 06:43:54;;;;;;;6;5;;;;;;;17.7;56.74414;998.9069;;;;
2019/06/07 06:46:19;;;;;;;8.3;5.1;;;;;;;17.79;56.91992;998.9074;;;;
2019/06/07 06:48:44;;;;;;;7.3;5.6;;;;;;;17.67;56.65918;998.8768;;;;
2019/06/07 06:51:16;;;;;;;6.4;5;;;;;;;18.34;55.25293;998.822;;;;
2019/06/07 06:53:41;;;;;;;5.2;4.7;;;;;;;18.76;53.5791;998.7255;;;;
2019/06/07 06:56:06;;;;;;;6.5;4.8;;;;;;;19.02;53.27246;998.7175;;;;
2019/06/07 06:58:31;;;;;;;6.4;4.8;;;;;;;19.88;51.0498;998.7006;;;;
2019/06/07 07:00:56;;;;;;;5.7;4.8;;;;;;;20.31;49.43652;998.6501;;;;
2019/06/07 07:03:21;;;;;;;6.5;5;;;;;;;20.04;49.47754;998.6652;;;;
2019/06/07 07:05:47;;;;;;;6.6;4.9;;;;;;;19.8;51.09766;998.6003;;;;
2019/06/07 07:08:26;;;;;;;5.3;4.3;;;;;;;20.34;49.49902;998.5145;;;;
2019/06/07 07:10:51;;;;;;;7;4.6;;;;;;;20.95;48.13672;998.4458;;;;
2019/06/07 07:13:16;;;;;;;5.3;4.7;;;;;;;20.96;47.58594;998.3931;;;;
2019/06/07 07:15:41;;;;;;;6;4.4;;;;;;;20.97;47.89258;998.3618;;;;
2019/06/07 07:18:13;;;;;;;5.2;4.7;;;;;;;21.53;46.21582;998.384;;;;
2019/06/07 07:20:48;;;;;;;6.1;4.7;;;;;;;20.23;49.43945;998.4473;;;;
2019/06/07 07:23:20;;;;;;;6.1;4.5;;;;;;;21.51;46.95313;998.2849;;;;
2019/06/07 07:25:49;;;;;;;4.9;4.4;;;;;;;22.01;44.87891;998.2089;;;;
2019/06/07 07:28:14;;;;;;;5.9;4;;;;;;;22.27;44.51758;998.2442;;;;
2019/06/07 07:30:40;;;;;;;6;4.8;;;;;;;21.25;47.23145;998.1953;;;;
2019/06/07 07:33:05;;;;;;;5.1;4.2;;;;;;;22.26;45.1748;998.1369;;;;
2019/06/07 07:35:30;;;;;;;5.9;4.8;;;;;;;20.41;49.59961;998.1716;;;;
2019/06/07 07:37:55;;;;;;;7.4;4.6;;;;;;;21.99;46.37012;998.0567;;;;
2019/06/07 07:40:20;;;;;;;7.1;4.6;;;;;;;22.26;45.93945;998.0714;;;;
2019/06/07 07:42:45;;;;;;;6.5;5.1;;;;;;;20.51;49.61133;998.0742;;;;
2019/06/07 07:45:20;;;;;;;5.3;4.8;;;;;;;20.91;49.45801;997.9561;;;;
2019/06/07 07:47:45;;;;;;;6.1;4.9;;;;;;;20.89;48.9043;997.9745;;;;
2019/06/07 07:50:17;;;;;;;6;5.4;;;;;;;20.8;49.44531;997.9352;;;;
2019/06/07 07:52:42;;;;;;;6.1;5.2;;;;;;;20.63;49.23828;997.9601;;;;
2019/06/07 07:55:08;;;;;;;6;5.4;;;;;;;20.58;49.91309;997.8753;;;;
2019/06/07 07:57:33;;;;;;;8.5;5.4;;;;;;;20.62;50.18652;997.8994;;;;
2019/06/07 07:59:58;;;;;;;7;5.2;;;;;;;21.07;48.87598;997.818;;;;
2019/06/07 08:02:23;;;;;;;7.2;5.3;;;;;;;20.63;50;997.8318;;;;
2019/06/07 08:04:48;;;;;;;6.7;5;;;;;;;20.47;50.16895;997.7986;;;;
2019/06/07 08:07:13;;;;;;;6.1;5.3;;;;;;;20.41;50.66504;997.6911;;;;
2019/06/07 08:09:38;;;;;;;6.8;5;;;;;;;21.22;48.91602;997.6883;;;;
2019/06/07 08:12:03;;;;;;;6.5;4.8;;;;;;;21.47;47.91113;997.7684;;;;
2019/06/07 08:14:29;;;;;;;5.9;4.9;;;;;;;23.13;44.33203;997.7253;;;;
2019/06/07 08:17:11;;;;;;;5.9;4.9;;;;;;;23.18;43.73633;997.6992;;;;
2019/06/07 08:19:45;;;;;;;6.6;5;;;;;;;24.3;41.70898;997.6842;;;;
2019/06/07 08:22:20;;;;;;;5.7;4.8;;;;;;;24.27;40.78418;997.6708;;;;
2019/06/07 08:24:45;;;;;;;6.4;4.8;;;;;;;25.6;38.66699;997.665;;;;
2019/06/07 08:27:10;;;;;;;6.3;5;;;;;;;25.54;38.15234;997.577;;;;
2019/06/07 08:29:35;;;;;;;7.6;5.5;;;;;;;25;39.7627;997.58;;;;
2019/06/07 08:32:00;;;;;;;6.3;4.7;;;;;;;24.84;39.6543;997.4895;;;;
2019/06/07 08:34:25;;;;;;;5.6;5;;;;;;;25.24;38.91992;997.5256;;;;
2019/06/07 08:36:51;;;;;;;5.1;4.6;;;;;;;24.59;41.03906;997.5038;;;;
2019/06/07 08:39:16;;;;;;;5.9;4.8;;;;;;;24.68;40.90527;997.3683;;;;
2019/06/07 08:41:41;;;;;;;7.6;5.2;;;;;;;24.74;40.18848;997.3409;;;;
2019/06/07 08:44:06;;;;;;;8.7;4.9;;;;;;;25.06;40.0166;997.2522;;;;
2019/06/07 08:46:31;;;;;;;6;5;;;;;;;24.17;41.77832;997.2112;;;;
2019/06/07 08:48:56;;;;;;;6.7;5.8;;;;;;;24.03;41.50586;997.2517;;;;
2019/06/07 08:51:21;;;;;;;4.9;4.3;;;;;;;24.57;41.6875;997.1069;;;;
2019/06/07 08:53:46;;;;;;;7.9;5.2;;;;;;;25.18;39.7793;997.0627;;;;
2019/06/07 08:56:12;;;;;;;5.7;5;;;;;;;25.16;39.54102;997.0115;;;;
2019/06/07 08:58:37;;;;;;;6.4;4.4;;;;;;;25.65;39.05078;997.0793;;;;
2019/06/07 09:01:02;;;;;;;5.5;4.5;;;;;;;25.44;39.88379;997.0028;;;;
2019/06/07 09:03:27;;;;;;;5.1;4.6;;;;;;;25.21;39.68652;996.9836;;;;
2019/06/07 09:05:52;;;;;;;7.3;4.4;;;;;;;25.48;39.58008;996.9856;;;;
2019/06/07 09:08:19;;;;;;;6;4.5;;;;;;;25.92;39.10938;996.9241;;;;
2019/06/07 09:10:44;;;;;;;5.6;4.8;;;;;;;26.09;38.30664;996.9359;;;;
2019/06/07 09:13:10;;;;;;;7.1;4.9;;;;;;;25.83;38.88867;996.8108;;;;
2019/06/07 09:15:35;;;;;;;9.5;5.5;;;;;;;25.36;39.32129;996.9161;;;;
2019/06/07 09:18:00;;;;;;;8.6;5;;;;;;;25.15;39.94238;996.7726;;;;
2019/06/07 09:20:25;;;;;;;6.5;4.6;;;;;;;25.34;40.33691;996.6836;;;;
2019/06/07 09:22:50;;;;;;;5.8;5;;;;;;;24.76;41.13672;996.6349;;;;
2019/06/07 09:25:15;;;;;;;6.1;4.2;;;;;;;25.02;41.08984;996.6987;;;;
2019/06/07 09:27:41;;;;;;;8.1;5.5;;;;;;;24.76;40.74707;996.6839;;;;
2019/06/07 09:30:06;;;;;;;7.2;4.8;;;;;;;25.54;40.22559;996.6933;;;;
2019/06/07 09:32:33;;;;;;;6.2;4.5;;;;;;;25.98;38.71191;996.7006;;;;
2019/06/07 09:34:58;;;;;;;6.2;4.4;;;;;;;25.79;39.51367;996.7048;;;;
2019/06/07 09:37:24;;;;;;;7.3;4.6;;;;;;;25.28;40.1543;996.6744;;;;
2019/06/07 09:39:48;;;;;;;7.2;4.3;;;;;;;25.84;39.38672;996.6789;;;;
2019/06/07 09:42:13;;;;;;;5.1;4.6;;;;;;;25.97;39.10254;996.6755;;;;
2019/06/07 09:44:39;;;;;;;6;5.2;;;;;;;24.78;41.39941;996.642;;;;
2019/06/07 09:47:04;;;;;;;8.3;5;;;;;;;25.38;39.98633;996.7193;;;;
2019/06/07 09:49:29;;;;;;;7.1;4.5;;;;;;;25;41.18262;996.6241;;;;
2019/06/07 09:51:54;;;;;;;5.2;4.3;;;;;;;25.03;41.33887;996.5068;;;;
2019/06/07 09:54:19;;;;;;;5.7;4.5;;;;;;;25.04;41.28125;996.524;;;;
2019/06/07 09:56:44;;;;;;;6.4;4.2;;;;;;;25.4;40.52051;996.498;;;;
2019/06/07 09:59:09;;;;;;;8.7;4.7;;;;;;;25.22;40.68262;996.4973;;;;
2019/06/07 10:01:42;;;;;;;5.9;4.8;;;;;;;24.6;42.46875;996.3943;;;;
2019/06/07 10:04:17;;;;;;;4.6;4.1;;;;;;;25.81;39.82227;996.3047;;;;
2019/06/07 10:06:42;;;;;;;5.3;4.3;;;;;;;26.13;39.19922;996.3114;;;;
2019/06/07 10:09:07;;;;;;;5.2;3.7;;;;;;;26.59;38.37305;996.3265;;;;
2019/06/07 10:11:32;;;;;;;5;4.2;;;;;;;25.48;40.06641;996.2891;;;;
2019/06/07 10:13:57;;;;;;;6;4.4;;;;;;;25.58;39.96777;996.2493;;;;
2019/06/07 10:16:23;;;;;;;5.7;4;;;;;;;25.26;40.875;996.1344;;;;
2019/06/07 10:18:48;;;;;;;4.9;4.4;;;;;;;24.52;42.34375;996.1653;;;;
2019/06/07 10:21:13;;;;;;;6.1;4;;;;;;;24.77;42.35547;996.0989;;;;
2019/06/07 10:23:38;;;;;;;6.2;3.7;;;;;;;25.31;41.3418;996.0883;;;;
2019/06/07 10:26:03;;;;;;;4.9;3.9;;;;;;;25.08;41.62695;996.085;;;;
2019/06/07 10:28:28;;;;;;;4.6;3.4;;;;;;;24.82;42.66797;996.0731;;;;
2019/06/07 10:30:53;;;;;;;5.1;3.8;;;;;;;25.87;39.92285;996.1713;;;;
2019/06/07 10:33:18;;;;;;;5.9;4.4;;;;;;;24.93;42.00391;995.9316;;;;
2019/06/07 10:35:44;;;;;;;4.5;3.8;;;;;;;24.53;43.66797;995.933;;;;
2019/06/07 10:38:09;;;;;;;6.2;3.7;;;;;;;24.32;44.20313;995.8333;;;;
2019/06/07 10:40:34;;;;;;;3.8;3.2;;;;;;;24.44;44.14453;995.8297;;;;
2019/06/07 10:42:59;;;;;;;6.7;3.9;;;;;;;23.8;45.23633;995.826;;;;
2019/06/07 10:45:24;;;;;;;6.4;3.5;;;;;;;23.88;45.38672;995.8159;;;;
2019/06/07 10:47:49;;;;;;;4.7;3.2;;;;;;;24.22;45.68164;995.8456;;;;
2019/06/07 10:50:14;;;;;;;4.9;3.3;;;;;;;24.23;44.92578;995.8121;;;;
2019/06/07 10:52:40;;;;;;;4.9;3.5;;;;;;;24.31;44.37891;995.8386;;;;
2019/06/07 10:55:05;;;;;;;5;3.5;;;;;;;24.43;45.06445;995.7413;;;;
2019/06/07 10:57:30;;;;;;;5.7;3.7;;;;;;;24.62;44.03223;995.7078;;;;
2019/06/07 10:59:55;;;;;;;8.3;3.9;;;;;;;24.67;43.5166;995.6506;;;;
2019/06/07 11:02:20;;;;;;;4.7;3.5;;;;;;;24.32;45.1123;995.5676;;;;
2019/06/07 11:04:45;;;;;;;4.1;3.6;;;;;;;24.47;44.44238;995.6047;;;;
2019/06/07 11:07:10;;;;;;;6.8;3.7;;;;;;;24.81;43.51953;995.5737;;;;
2019/06/07 11:09:35;;;;;;;4.8;3.7;;;;;;;24.52;43.50195;995.5485;;;;
2019/06/07 11:12:00;;;;;;;4.3;3.5;;;;;;;24.57;44.14453;995.5508;;;;
2019/06/07 11:14:26;;;;;;;4.2;3.3;;;;;;;24.4;44.93164;995.5383;;;;
2019/06/07 11:16:51;;;;;;;3.8;3.1;;;;;;;24.67;44.73438;995.3837;;;;
2019/06/07 11:19:16;;;;;;;6.8;3.8;;;;;;;24.7;44.14551;995.3439;;;;
2019/06/07 11:21:41;;;;;;;4.2;3.1;;;;;;;25.17;43.53027;995.3764;;;;
2019/06/07 11:24:07;;;;;;;5.1;3.6;;;;;;;24.69;43.67188;995.3533;;;;
2019/06/07 11:26:33;;;;;;;6.3;3.3;;;;;;;24.71;44.54883;995.2993;;;;
2019/06/07 11:28:58;;;;;;;6.6;3.3;;;;;;;24.92;44.29785;995.259;;;;
2019/06/07 11:31:24;;;;;;;7;3.6;;;;;;;24.86;43.67773;995.2732;;;;
2019/06/07 11:33:50;;;;;;;4.4;3.3;;;;;;;25.09;43.88867;995.2792;;;;
2019/06/07 11:36:22;;;;;;;5;3.4;;;;;;;25.3;42.59473;995.2915;;;;
2019/06/07 11:38:49;;;;;;;5.1;3.5;;;;;;;25.28;42.14355;995.2302;;;;
2019/06/07 11:41:14;;;;;;;4.4;3.2;;;;;;;25.41;41.83594;995.2218;;;;
2019/06/07 11:43:39;;;;;;;5.8;3.6;;;;;;;25.33;42.5752;995.1956;;;;
2019/06/07 11:46:04;;;;;;;5.2;4;;;;;;;25.7;41.60156;995.233;;;;
2019/06/07 11:48:40;;;;;;;6.4;3.8;;;;;;;25.7;41.37695;995.1463;;;;
2019/06/07 11:51:07;;;;;;;5.3;3.8;;;;;;;25.83;41.4248;994.9579;;;;
2019/06/07 11:53:32;;;;;;;4.3;3.1;;;;;;;25.89;42.40234;995.0284;;;;
2019/06/07 11:56:09;;;;;;;5.5;3.4;;;;;;;25.53;42.36816;994.9703;;;;
2019/06/07 11:58:35;;;;;;;3.6;3.1;;;;;;;25.83;42.43262;994.8939;;;;
2019/06/07 12:01:00;;;;;;;5.8;3.3;;;;;;;25.88;42.0459;994.8975;;;;
2019/06/07 12:03:25;;;;;;;6;3.9;;;;;;;25.81;41.61328;994.843;;;;
2019/06/07 12:05:50;;;;;;;5.2;3.7;;;;;;;25.95;41.625;994.7855;;;;
2019/06/07 12:08:16;;;;;;;5.6;4.2;;;;;;;25.74;41.41699;994.7244;;;;
2019/06/07 12:10:41;;;;;;;4.7;3.8;;;;;;;25.88;41.79688;994.666;;;;
2019/06/07 12:13:18;;;;;;;5;3.5;;;;;;;25.96;41.85254;994.5664;;;;
2019/06/07 12:15:51;;;;;;;5.6;3.7;;;;;;;25.61;42.54199;994.5775;;;;
2019/06/07 12:18:19;;;;;;;4.5;3.4;;;;;;;25.68;43.15332;994.4986;;;;
2019/06/07 12:20:44;;;;;;;4.2;3.4;;;;;;;25.89;42.22461;994.4669;;;;
2019/06/07 12:23:16;;;;;;;4.6;3.6;;;;;;;26.01;41.91699;994.4484;;;;
2019/06/07 12:25:41;;;;;;;4.4;3.8;;;;;;;25.88;42.14063;994.5337;;;;
2019/06/07 12:28:06;;;;;;;5.8;3.7;;;;;;;25.86;41.9248;994.3926;;;;
2019/06/07 12:30:31;;;;;;;3.9;3.5;;;;;;;25.9;41.96484;994.3949;;;;
2019/06/07 12:32:57;;;;;;;5.9;4.2;;;;;;;25.96;41.75684;994.3326;;;;
2019/06/07 12:35:22;;;;;;;7.1;4.1;;;;;;;25.97;41.6875;994.2416;;;;
2019/06/07 12:37:47;;;;;;;4.4;3.6;;;;;;;26.21;41.89844;994.1953;;;;
2019/06/07 12:40:21;;;;;;;4.9;3.5;;;;;;;26.28;41.24121;994.1355;;;;
2019/06/07 12:42:46;;;;;;;5.4;3.7;;;;;;;26.15;41.53809;994.084;;;;
2019/06/07 12:45:11;;;;;;;4;3.1;;;;;;;26.24;42.19824;994.0921;;;;
2019/06/07 12:47:40;;;;;;;4.6;3.3;;;;;;;26.57;41.9209;994.076;;;;
2019/06/07 12:50:06;;;;;;;4.8;3.5;;;;;;;26.43;41.13672;994.1044;;;;
2019/06/07 12:52:46;;;;;;;4.6;3.4;;;;;;;26.64;41.30957;994.0728;;;;
2019/06/07 12:55:20;;;;;;;4.4;3.5;;;;;;;26.79;41.25293;993.9995;;;;
2019/06/07 12:57:48;;;;;;;4.2;3.2;;;;;;;26.84;41.02051;993.9697;;;;
2019/06/07 13:00:14;;;;;;;4;3.6;;;;;;;26.94;40.61328;993.9827;;;;
2019/06/07 13:02:39;;;;;;;5.2;3.4;;;;;;;26.82;40.35254;994.0345;;;;
2019/06/07 13:05:04;;;;;;;4.1;3.3;;;;;;;26.88;40.3457;993.8823;;;;
2019/06/07 13:07:36;;;;;;;4.8;3.5;;;;;;;26.79;40.20703;993.8542;;;;
2019/06/07 13:10:06;;;;;;;4;3.6;;;;;;;26.81;40.42285;993.8438;;;;
2019/06/07 13:12:31;;;;;;;4.3;3.4;;;;;;;27.17;40.74023;993.8579;;;;
2019/06/07 13:14:56;;;;;;;4.6;3.8;;;;;;;26.87;40.0127;993.8117;;;;
2019/06/07 13:17:21;;;;;;;5;3.5;;;;;;;27.24;40.1875;993.7531;;;;
2019/06/07 13:19:47;;;;;;;4.1;3.6;;;;;;;27.37;40.33008;993.7477;;;;
2019/06/07 13:22:18;;;;;;;4;3.5;;;;;;;27.36;39.4375;993.7144;;;;
2019/06/07 13:24:47;;;;;;;5.7;3.8;;;;;;;27.39;38.86914;993.7881;;;;
2019/06/07 13:27:13;;;;;;;6;3.5;;;;;;;27.41;38.7168;993.7707;;;;
2019/06/07 13:29:45;;;;;;;4.3;3.4;;;;;;;27.38;38.5;993.7589;;;;
2019/06/07 13:32:10;;;;;;;5.5;3.7;;;;;;;27.42;38.84766;993.7675;;;;
2019/06/07 13:34:35;;;;;;;5.8;3.9;;;;;;;27.43;39.19336;993.7203;;;;
2019/06/07 13:37:00;;;;;;;5.3;3.4;;;;;;;27.6;39.24414;993.764;;;;
2019/06/07 13:39:25;;;;;;;5.2;3.8;;;;;;;27.69;38.22949;993.7507;;;;
2019/06/07 13:42:01;;;;;;;4.8;3.6;;;;;;;27.83;38.4668;993.6941;;;;
2019/06/07 13:44:26;;;;;;;4.2;3.8;;;;;;;27.77;38.84277;993.7379;;;;
2019/06/07 13:46:57;;;;;;;4.1;3.7;;;;;;;27.7;38.11035;993.7145;;;;
2019/06/07 13:49:22;;;;;;;5.7;3.6;;;;;;;27.55;38.88281;993.6247;;;;
2019/06/07 13:51:47;;;;;;;5.4;4.2;;;;;;;27.52;38.26172;993.5945;;;;
2019/06/07 13:54:17;;;;;;;6;3.5;;;;;;;27.65;38.75;993.5608;;;;
2019/06/07 13:56:44;;;;;;;5.5;4.1;;;;;;;27.85;38.43359;993.46;;;;
2019/06/07 13:59:11;;;;;;;5.4;3.8;;;;;;;28.01;38.26758;993.4808;;;;
2019/06/07 14:01:35;;;;;;;5.8;3.9;;;;;;;27.95;37.83398;993.3965;;;;
2019/06/07 14:04:08;;;;;;;4.1;3.7;;;;;;;27.81;37.69238;993.3759;;;;
2019/06/07 14:06:38;;;;;;;5.1;3.6;;;;;;;27.79;37.4043;993.4945;;;;
2019/06/07 14:09:09;;;;;;;5.2;4.2;;;;;;;27.97;36.52637;993.4973;;;;
2019/06/07 14:11:49;;;;;;;4.7;3.9;;;;;;;28.08;36.17773;993.5568;;;;
2019/06/07 14:14:22;;;;;;;4.4;3.6;;;;;;;28.22;36.48633;993.5655;;;;
2019/06/07 14:16:54;;;;;;;6.8;4;;;;;;;28.15;36.20605;993.4808;;;;
2019/06/07 14:19:19;;;;;;;5.8;4.1;;;;;;;28.02;36.18457;993.3519;;;;
2019/06/07 14:21:44;;;;;;;4.4;4;;;;;;;28.15;36.70703;993.3613;;;;
2019/06/07 14:24:09;;;;;;;4.4;3.6;;;;;;;28.33;36.90039;993.3253;;;;
2019/06/07 14:26:34;;;;;;;5.9;4;;;;;;;28.55;36.65625;993.4718;;;;
2019/06/07 14:28:59;;;;;;;5;4.1;;;;;;;28.54;36.53613;993.5047;;;;
2019/06/07 14:31:24;;;;;;;5.5;4.1;;;;;;;28.72;35.99023;993.5584;;;;
2019/06/07 14:33:50;;;;;;;4.6;4.2;;;;;;;28.77;34.63379;993.5245;;;;
2019/06/07 14:36:15;;;;;;;6;4.1;;;;;;;28.76;34.95508;993.4673;;;;
2019/06/07 14:38:40;;;;;;;4.8;3.8;;;;;;;28.96;35.00684;993.5003;;;;
2019/06/07 14:41:05;;;;;;;10.9;9.8;;;;;;;29.1;34.18164;993.5606;;;;
2019/06/07 14:43:33;;;;;;;4.8;4;;;;;;;28.76;36.11328;993.6507;;;;
2019/06/07 14:46:13;;;;;;;5.6;4.1;;;;;;;28.45;36.94629;993.6061;;;;
2019/06/07 14:48:38;;;;;;;5.9;4;;;;;;;28.28;36.2168;993.7603;;;;
2019/06/07 14:51:03;;;;;;;5.2;4.2;;;;;;;28.1;36.87012;993.8122;;;;
2019/06/07 14:53:29;;;;;;;7;4.2;;;;;;;28.04;37.3418;993.9202;;;;
2019/06/07 14:55:54;;;;;;;5.5;4.2;;;;;;;27.84;37.80078;993.9367;;;;
2019/06/07 14:58:19;;;;;;;4.4;4;;;;;;;27.61;38.97168;993.9607;;;;
2019/06/07 15:00:44;;;;;;;5.9;4.3;;;;;;;27.26;39.70215;993.902;;;;
2019/06/07 15:03:12;;;;;;;5.1;4.4;;;;;;;27.15;39.78809;993.9058;;;;
2019/06/07 15:05:37;;;;;;;5.1;4.5;;;;;;;27.13;39.8457;994.067;;;;
2019/06/07 15:08:02;;;;;;;5.7;4.2;;;;;;;27.31;40.03906;994.1864;;;;
2019/06/07 15:10:27;;;;;;;5.2;4.4;;;;;;;27.55;38.7998;994.0262;;;;
2019/06/07 15:12:53;;;;;;;5.2;4.4;;;;;;;27.87;38.4707;993.8872;;;;
2019/06/07 15:15:18;;;;;;;6.9;4.6;;;;;;;27.84;39.3125;994.0223;;;;
2019/06/07 15:17:54;;;;;;;6.3;4.4;;;;;;;27.79;39.55859;994.0704;;;;
2019/06/07 15:20:23;;;;;;;6.1;4.4;;;;;;;27.79;40.14258;994.1829;;;;
2019/06/07 15:22:55;;;;;;;5.9;4.7;;;;;;;28.01;39.24414;994.2031;;;;
2019/06/07 15:25:22;;;;;;;6.1;4.5;;;;;;;28.02;38.64941;994.2393;;;;
2019/06/07 15:27:47;;;;;;;6.2;4.7;;;;;;;27.96;38.4541;994.3845;;;;